sensor_id;sensor_type;location;lat;lon;timestamp;P1;durP1;ratioP1;P2;durP2;ratioP2
22780;SDS011;11557;50.884;4.322;2023-09-08T00:00:08;3.70;;;3.15;;
22780;SDS011;11557;50.884;4.322;2023-09-08T00:02:34;7.07;;;3.90;;
22780;SDS011;11557;50.884;4.322;2023-09-08T00:05:00;3.35;;;2.78;;
22780;SDS011;11557;50.884;4.322;2023-09-08T00:07:25;7.57;;;3.47;;
22780;SDS011;11557;50.884;4.322;2023-09-08T00:09:51;4.72;;;3.47;;
22780;SDS011;11557;50.884;4.322;2023-09-08T00:12:16;7.18;;;3.15;;
22780;SDS011;11557;50.884;4.322;2023-09-08T00:14:42;12.23;;;3.10;;
22780;SDS011;11557;50.884;4.322;2023-09-08T00:17:08;5.75;;;3.13;;
22780;SDS011;11557;50.884;4.322;2023-09-08T00:19:34;6.55;;;3.20;;
22780;SDS011;11557;50.884;4.322;2023-09-08T00:21:59;4.55;;;3.70;;
22780;SDS011;11557;50.884;4.322;2023-09-08T00:24:26;7.47;;;3.15;;
22780;SDS011;11557;50.884;4.322;2023-09-08T00:26:52;6.88;;;4.28;;
22780;SDS011;11557;50.884;4.322;2023-09-08T00:29:18;4.40;;;3.20;;
22780;SDS011;11557;50.884;4.322;2023-09-08T00:31:43;10.57;;;3.33;;
22780;SDS011;11557;50.884;4.322;2023-09-08T00:34:09;5.90;;;3.03;;
22780;SDS011;11557;50.884;4.322;2023-09-08T00:36:34;3.90;;;2.97;;
22780;SDS011;11557;50.884;4.322;2023-09-08T00:39:01;6.25;;;4.50;;
22780;SDS011;11557;50.884;4.322;2023-09-08T00:41:27;4.00;;;2.97;;
22780;SDS011;11557;50.884;4.322;2023-09-08T00:43:52;5.70;;;2.72;;
22780;SDS011;11557;50.884;4.322;2023-09-08T00:46:18;4.97;;;2.95;;
22780;SDS011;11557;50.884;4.322;2023-09-08T00:48:44;7.35;;;3.25;;
22780;SDS011;11557;50.884;4.322;2023-09-08T00:51:10;3.97;;;3.00;;
22780;SDS011;11557;50.884;4.322;2023-09-08T00:53:36;5.15;;;3.65;;
22780;SDS011;11557;50.884;4.322;2023-09-08T00:56:02;4.32;;;2.78;;
22780;SDS011;11557;50.884;4.322;2023-09-08T00:58:28;4.07;;;3.03;;
22780;SDS011;11557;50.884;4.322;2023-09-08T01:00:54;8.13;;;3.38;;
22780;SDS011;11557;50.884;4.322;2023-09-08T01:03:22;11.38;;;4.18;;
22780;SDS011;11557;50.884;4.322;2023-09-08T01:05:54;4.43;;;3.00;;
22780;SDS011;11557;50.884;4.322;2023-09-08T01:08:20;4.30;;;3.63;;
22780;SDS011;11557;50.884;4.322;2023-09-08T01:10:46;5.63;;;2.80;;
22780;SDS011;11557;50.884;4.322;2023-09-08T01:13:13;6.10;;;3.90;;
22780;SDS011;11557;50.884;4.322;2023-09-08T01:15:38;7.15;;;3.38;;
22780;SDS011;11557;50.884;4.322;2023-09-08T01:18:04;4.82;;;3.53;;
22780;SDS011;11557;50.884;4.322;2023-09-08T01:20:30;8.27;;;3.53;;
22780;SDS011;11557;50.884;4.322;2023-09-08T01:25:47;4.40;;;3.28;;
22780;SDS011;11557;50.884;4.322;2023-09-08T01:28:40;5.57;;;3.13;;
22780;SDS011;11557;50.884;4.322;2023-09-08T01:31:07;5.97;;;3.53;;
22780;SDS011;11557;50.884;4.322;2023-09-08T01:33:33;7.47;;;3.45;;
22780;SDS011;11557;50.884;4.322;2023-09-08T01:35:59;3.88;;;3.53;;
22780;SDS011;11557;50.884;4.322;2023-09-08T01:38:25;3.90;;;3.05;;
22780;SDS011;11557;50.884;4.322;2023-09-08T01:40:50;4.32;;;2.40;;
22780;SDS011;11557;50.884;4.322;2023-09-08T01:43:16;4.45;;;3.50;;
22780;SDS011;11557;50.884;4.322;2023-09-08T01:45:42;9.60;;;3.15;;
22780;SDS011;11557;50.884;4.322;2023-09-08T01:48:07;15.43;;;4.03;;
22780;SDS011;11557;50.884;4.322;2023-09-08T01:50:33;5.45;;;3.45;;
22780;SDS011;11557;50.884;4.322;2023-09-08T01:52:59;5.45;;;3.38;;
22780;SDS011;11557;50.884;4.322;2023-09-08T01:55:24;6.18;;;3.63;;
22780;SDS011;11557;50.884;4.322;2023-09-08T01:57:50;5.57;;;3.22;;
22780;SDS011;11557;50.884;4.322;2023-09-08T02:00:15;4.38;;;2.45;;
22780;SDS011;11557;50.884;4.322;2023-09-08T02:02:42;5.60;;;3.88;;
22780;SDS011;11557;50.884;4.322;2023-09-08T02:05:08;3.80;;;2.53;;
22780;SDS011;11557;50.884;4.322;2023-09-08T02:07:34;2.55;;;2.30;;
22780;SDS011;11557;50.884;4.322;2023-09-08T02:10:00;3.35;;;3.05;;
22780;SDS011;11557;50.884;4.322;2023-09-08T02:12:25;4.78;;;2.72;;
22780;SDS011;11557;50.884;4.322;2023-09-08T02:14:51;3.28;;;2.42;;
22780;SDS011;11557;50.884;4.322;2023-09-08T02:17:17;4.18;;;2.92;;
22780;SDS011;11557;50.884;4.322;2023-09-08T02:19:42;3.88;;;2.88;;
22780;SDS011;11557;50.884;4.322;2023-09-08T02:22:08;4.90;;;2.70;;
22780;SDS011;11557;50.884;4.322;2023-09-08T02:24:34;7.60;;;2.63;;
22780;SDS011;11557;50.884;4.322;2023-09-08T02:26:59;6.88;;;2.88;;
22780;SDS011;11557;50.884;4.322;2023-09-08T02:29:25;4.57;;;2.58;;
22780;SDS011;11557;50.884;4.322;2023-09-08T02:31:51;8.20;;;2.55;;
22780;SDS011;11557;50.884;4.322;2023-09-08T02:34:16;7.32;;;3.55;;
22780;SDS011;11557;50.884;4.322;2023-09-08T02:36:42;3.38;;;2.30;;
22780;SDS011;11557;50.884;4.322;2023-09-08T02:39:08;4.18;;;2.08;;
22780;SDS011;11557;50.884;4.322;2023-09-08T02:41:35;3.38;;;2.50;;
22780;SDS011;11557;50.884;4.322;2023-09-08T02:44:01;4.05;;;2.42;;
22780;SDS011;11557;50.884;4.322;2023-09-08T02:46:27;5.72;;;3.05;;
22780;SDS011;11557;50.884;4.322;2023-09-08T02:48:53;5.72;;;3.65;;
22780;SDS011;11557;50.884;4.322;2023-09-08T02:51:18;4.63;;;2.78;;
22780;SDS011;11557;50.884;4.322;2023-09-08T02:53:44;3.28;;;2.97;;
22780;SDS011;11557;50.884;4.322;2023-09-08T02:56:09;5.68;;;3.20;;
22780;SDS011;11557;50.884;4.322;2023-09-08T02:58:35;4.10;;;2.60;;
22780;SDS011;11557;50.884;4.322;2023-09-08T03:01:14;4.10;;;2.20;;
22780;SDS011;11557;50.884;4.322;2023-09-08T03:03:41;4.15;;;2.90;;
22780;SDS011;11557;50.884;4.322;2023-09-08T03:06:07;5.55;;;2.38;;
22780;SDS011;11557;50.884;4.322;2023-09-08T03:08:34;5.45;;;3.08;;
22780;SDS011;11557;50.884;4.322;2023-09-08T03:11:01;8.30;;;2.70;;
22780;SDS011;11557;50.884;4.322;2023-09-08T03:13:28;5.10;;;3.05;;
22780;SDS011;11557;50.884;4.322;2023-09-08T03:15:54;3.78;;;2.95;;
22780;SDS011;11557;50.884;4.322;2023-09-08T03:18:21;3.60;;;2.55;;
22780;SDS011;11557;50.884;4.322;2023-09-08T03:20:50;4.22;;;2.85;;
22780;SDS011;11557;50.884;4.322;2023-09-08T03:23:16;1.98;;;1.73;;
22780;SDS011;11557;50.884;4.322;2023-09-08T03:25:42;3.67;;;2.20;;
22780;SDS011;11557;50.884;4.322;2023-09-08T03:28:08;4.40;;;2.97;;
22780;SDS011;11557;50.884;4.322;2023-09-08T03:30:34;5.03;;;2.90;;
22780;SDS011;11557;50.884;4.322;2023-09-08T03:32:59;3.53;;;2.30;;
22780;SDS011;11557;50.884;4.322;2023-09-08T03:35:25;3.05;;;2.75;;
22780;SDS011;11557;50.884;4.322;2023-09-08T03:37:50;4.43;;;2.33;;
22780;SDS011;11557;50.884;4.322;2023-09-08T03:40:16;7.72;;;2.85;;
22780;SDS011;11557;50.884;4.322;2023-09-08T03:42:42;5.25;;;2.60;;
22780;SDS011;11557;50.884;4.322;2023-09-08T03:45:08;7.57;;;2.92;;
22780;SDS011;11557;50.884;4.322;2023-09-08T03:47:33;4.60;;;3.00;;
22780;SDS011;11557;50.884;4.322;2023-09-08T03:49:59;3.45;;;2.80;;
22780;SDS011;11557;50.884;4.322;2023-09-08T03:52:25;3.88;;;2.30;;
22780;SDS011;11557;50.884;4.322;2023-09-08T03:54:51;5.45;;;3.35;;
22780;SDS011;11557;50.884;4.322;2023-09-08T03:57:16;11.55;;;2.88;;
22780;SDS011;11557;50.884;4.322;2023-09-08T03:59:42;3.30;;;2.80;;
22780;SDS011;11557;50.884;4.322;2023-09-08T04:02:08;5.72;;;2.83;;
22780;SDS011;11557;50.884;4.322;2023-09-08T04:04:33;4.47;;;2.30;;
22780;SDS011;11557;50.884;4.322;2023-09-08T04:06:59;4.45;;;3.17;;
22780;SDS011;11557;50.884;4.322;2023-09-08T04:09:24;3.58;;;2.42;;
22780;SDS011;11557;50.884;4.322;2023-09-08T04:11:50;4.15;;;2.33;;
22780;SDS011;11557;50.884;4.322;2023-09-08T04:14:16;3.58;;;2.08;;
22780;SDS011;11557;50.884;4.322;2023-09-08T04:16:41;4.35;;;2.80;;
22780;SDS011;11557;50.884;4.322;2023-09-08T04:19:07;4.40;;;2.63;;
22780;SDS011;11557;50.884;4.322;2023-09-08T04:21:33;4.82;;;3.05;;
22780;SDS011;11557;50.884;4.322;2023-09-08T04:23:58;4.20;;;2.58;;
22780;SDS011;11557;50.884;4.322;2023-09-08T04:26:24;4.38;;;3.45;;
22780;SDS011;11557;50.884;4.322;2023-09-08T04:28:50;3.38;;;2.65;;
22780;SDS011;11557;50.884;4.322;2023-09-08T04:31:15;3.45;;;2.45;;
22780;SDS011;11557;50.884;4.322;2023-09-08T04:33:43;3.70;;;2.50;;
22780;SDS011;11557;50.884;4.322;2023-09-08T04:36:08;3.63;;;2.60;;
22780;SDS011;11557;50.884;4.322;2023-09-08T04:38:37;3.25;;;2.42;;
22780;SDS011;11557;50.884;4.322;2023-09-08T04:41:02;5.05;;;3.10;;
22780;SDS011;11557;50.884;4.322;2023-09-08T04:43:28;5.43;;;2.88;;
22780;SDS011;11557;50.884;4.322;2023-09-08T04:45:53;3.83;;;2.72;;
22780;SDS011;11557;50.884;4.322;2023-09-08T04:48:19;6.38;;;3.55;;
22780;SDS011;11557;50.884;4.322;2023-09-08T04:50:45;2.45;;;2.25;;
22780;SDS011;11557;50.884;4.322;2023-09-08T04:53:10;8.40;;;2.88;;
22780;SDS011;11557;50.884;4.322;2023-09-08T04:55:38;7.00;;;2.60;;
22780;SDS011;11557;50.884;4.322;2023-09-08T04:58:04;2.67;;;2.25;;
22780;SDS011;11557;50.884;4.322;2023-09-08T05:00:30;4.45;;;2.70;;
22780;SDS011;11557;50.884;4.322;2023-09-08T05:02:56;4.20;;;3.35;;
22780;SDS011;11557;50.884;4.322;2023-09-08T05:05:21;4.40;;;2.60;;
22780;SDS011;11557;50.884;4.322;2023-09-08T05:07:47;2.75;;;2.22;;
22780;SDS011;11557;50.884;4.322;2023-09-08T05:10:13;5.45;;;3.28;;
22780;SDS011;11557;50.884;4.322;2023-09-08T05:12:38;4.57;;;2.65;;
22780;SDS011;11557;50.884;4.322;2023-09-08T05:15:04;3.85;;;2.67;;
22780;SDS011;11557;50.884;4.322;2023-09-08T05:17:35;5.55;;;3.53;;
22780;SDS011;11557;50.884;4.322;2023-09-08T05:20:01;3.80;;;2.60;;
22780;SDS011;11557;50.884;4.322;2023-09-08T05:22:27;4.78;;;3.03;;
22780;SDS011;11557;50.884;4.322;2023-09-08T05:24:53;4.97;;;3.15;;
22780;SDS011;11557;50.884;4.322;2023-09-08T05:27:18;7.72;;;3.35;;
22780;SDS011;11557;50.884;4.322;2023-09-08T05:29:44;5.63;;;3.80;;
22780;SDS011;11557;50.884;4.322;2023-09-08T05:32:10;4.22;;;2.80;;
22780;SDS011;11557;50.884;4.322;2023-09-08T05:34:35;5.32;;;3.25;;
22780;SDS011;11557;50.884;4.322;2023-09-08T05:37:01;6.03;;;3.35;;
22780;SDS011;11557;50.884;4.322;2023-09-08T05:39:27;6.63;;;3.85;;
22780;SDS011;11557;50.884;4.322;2023-09-08T05:41:54;3.90;;;3.17;;
22780;SDS011;11557;50.884;4.322;2023-09-08T05:44:20;3.42;;;2.25;;
22780;SDS011;11557;50.884;4.322;2023-09-08T05:46:47;7.13;;;2.80;;
22780;SDS011;11557;50.884;4.322;2023-09-08T05:49:13;5.43;;;3.53;;
22780;SDS011;11557;50.884;4.322;2023-09-08T05:51:41;5.90;;;2.92;;
22780;SDS011;11557;50.884;4.322;2023-09-08T05:54:06;2.60;;;2.20;;
22780;SDS011;11557;50.884;4.322;2023-09-08T05:56:33;3.15;;;2.78;;
22780;SDS011;11557;50.884;4.322;2023-09-08T05:59:04;4.53;;;2.53;;
22780;SDS011;11557;50.884;4.322;2023-09-08T06:01:30;6.20;;;3.22;;
22780;SDS011;11557;50.884;4.322;2023-09-08T06:03:56;5.15;;;2.78;;
22780;SDS011;11557;50.884;4.322;2023-09-08T06:06:22;4.78;;;3.20;;
22780;SDS011;11557;50.884;4.322;2023-09-08T06:08:48;5.40;;;3.53;;
22780;SDS011;11557;50.884;4.322;2023-09-08T06:11:14;4.47;;;2.85;;
22780;SDS011;11557;50.884;4.322;2023-09-08T06:13:39;6.50;;;3.60;;
22780;SDS011;11557;50.884;4.322;2023-09-08T06:16:05;4.25;;;3.03;;
22780;SDS011;11557;50.884;4.322;2023-09-08T06:18:31;3.28;;;2.90;;
22780;SDS011;11557;50.884;4.322;2023-09-08T06:20:56;11.13;;;3.50;;
22780;SDS011;11557;50.884;4.322;2023-09-08T06:23:22;7.10;;;4.22;;
22780;SDS011;11557;50.884;4.322;2023-09-08T06:25:48;5.68;;;3.53;;
22780;SDS011;11557;50.884;4.322;2023-09-08T06:28:14;6.22;;;3.47;;
22780;SDS011;11557;50.884;4.322;2023-09-08T06:30:40;6.25;;;2.88;;
22780;SDS011;11557;50.884;4.322;2023-09-08T06:33:08;4.80;;;2.80;;
22780;SDS011;11557;50.884;4.322;2023-09-08T06:35:34;3.75;;;3.30;;
22780;SDS011;11557;50.884;4.322;2023-09-08T06:38:00;7.03;;;3.67;;
22780;SDS011;11557;50.884;4.322;2023-09-08T06:40:26;2.58;;;2.22;;
22780;SDS011;11557;50.884;4.322;2023-09-08T06:42:54;5.25;;;3.00;;
22780;SDS011;11557;50.884;4.322;2023-09-08T06:45:20;7.03;;;3.67;;
22780;SDS011;11557;50.884;4.322;2023-09-08T06:47:46;5.78;;;2.78;;
22780;SDS011;11557;50.884;4.322;2023-09-08T06:50:11;5.75;;;3.67;;
22780;SDS011;11557;50.884;4.322;2023-09-08T06:52:37;5.60;;;3.33;;
22780;SDS011;11557;50.884;4.322;2023-09-08T06:55:03;4.85;;;3.10;;
22780;SDS011;11557;50.884;4.322;2023-09-08T06:57:31;5.68;;;3.05;;
22780;SDS011;11557;50.884;4.322;2023-09-08T06:59:57;3.75;;;2.17;;
22780;SDS011;11557;50.884;4.322;2023-09-08T07:02:22;3.33;;;2.58;;
22780;SDS011;11557;50.884;4.322;2023-09-08T07:04:48;4.00;;;2.40;;
22780;SDS011;11557;50.884;4.322;2023-09-08T07:07:16;3.42;;;2.40;;
22780;SDS011;11557;50.884;4.322;2023-09-08T07:09:43;4.88;;;3.05;;
22780;SDS011;11557;50.884;4.322;2023-09-08T07:12:09;5.70;;;2.92;;
22780;SDS011;11557;50.884;4.322;2023-09-08T07:14:35;5.28;;;3.47;;
22780;SDS011;11557;50.884;4.322;2023-09-08T07:17:00;4.75;;;2.90;;
22780;SDS011;11557;50.884;4.322;2023-09-08T07:19:26;5.50;;;2.40;;
22780;SDS011;11557;50.884;4.322;2023-09-08T07:21:52;3.08;;;2.33;;
22780;SDS011;11557;50.884;4.322;2023-09-08T07:24:18;4.03;;;2.40;;
22780;SDS011;11557;50.884;4.322;2023-09-08T07:26:45;3.38;;;2.40;;
22780;SDS011;11557;50.884;4.322;2023-09-08T07:29:10;3.03;;;2.45;;
22780;SDS011;11557;50.884;4.322;2023-09-08T07:31:38;6.32;;;2.67;;
22780;SDS011;11557;50.884;4.322;2023-09-08T07:34:04;4.00;;;3.08;;
22780;SDS011;11557;50.884;4.322;2023-09-08T07:36:30;2.42;;;2.13;;
22780;SDS011;11557;50.884;4.322;2023-09-08T07:38:56;3.45;;;2.55;;
22780;SDS011;11557;50.884;4.322;2023-09-08T07:41:21;6.85;;;2.90;;
22780;SDS011;11557;50.884;4.322;2023-09-08T07:43:47;2.15;;;1.95;;
22780;SDS011;11557;50.884;4.322;2023-09-08T07:46:13;4.45;;;2.95;;
22780;SDS011;11557;50.884;4.322;2023-09-08T07:48:40;2.53;;;2.25;;
22780;SDS011;11557;50.884;4.322;2023-09-08T07:51:05;3.75;;;2.80;;
22780;SDS011;11557;50.884;4.322;2023-09-08T07:53:31;21.95;;;3.40;;
22780;SDS011;11557;50.884;4.322;2023-09-08T07:55:57;4.82;;;2.70;;
22780;SDS011;11557;50.884;4.322;2023-09-08T07:58:22;3.70;;;2.78;;
22780;SDS011;11557;50.884;4.322;2023-09-08T08:00:48;2.55;;;2.35;;
22780;SDS011;11557;50.884;4.322;2023-09-08T08:03:14;5.80;;;3.03;;
22780;SDS011;11557;50.884;4.322;2023-09-08T08:05:39;7.97;;;3.45;;
22780;SDS011;11557;50.884;4.322;2023-09-08T08:08:05;4.97;;;2.67;;
22780;SDS011;11557;50.884;4.322;2023-09-08T08:10:32;3.75;;;2.33;;
22780;SDS011;11557;50.884;4.322;2023-09-08T08:12:58;5.03;;;2.63;;
22780;SDS011;11557;50.884;4.322;2023-09-08T08:15:33;3.92;;;2.40;;
22780;SDS011;11557;50.884;4.322;2023-09-08T08:18:00;14.75;;;2.78;;
22780;SDS011;11557;50.884;4.322;2023-09-08T08:20:26;4.10;;;2.42;;
22780;SDS011;11557;50.884;4.322;2023-09-08T08:22:52;3.22;;;2.38;;
22780;SDS011;11557;50.884;4.322;2023-09-08T08:25:17;3.20;;;2.10;;
22780;SDS011;11557;50.884;4.322;2023-09-08T08:27:43;3.03;;;2.22;;
22780;SDS011;11557;50.884;4.322;2023-09-08T08:30:09;4.95;;;3.13;;
22780;SDS011;11557;50.884;4.322;2023-09-08T08:32:36;4.30;;;2.75;;
22780;SDS011;11557;50.884;4.322;2023-09-08T08:35:02;7.55;;;2.67;;
22780;SDS011;11557;50.884;4.322;2023-09-08T08:37:29;4.13;;;2.53;;
22780;SDS011;11557;50.884;4.322;2023-09-08T08:39:55;3.13;;;2.60;;
22780;SDS011;11557;50.884;4.322;2023-09-08T08:42:20;2.08;;;1.88;;
22780;SDS011;11557;50.884;4.322;2023-09-08T08:44:47;7.28;;;3.75;;
22780;SDS011;11557;50.884;4.322;2023-09-08T08:47:13;6.10;;;2.65;;
22780;SDS011;11557;50.884;4.322;2023-09-08T08:49:41;5.88;;;3.17;;
22780;SDS011;11557;50.884;4.322;2023-09-08T08:52:11;8.95;;;2.22;;
22780;SDS011;11557;50.884;4.322;2023-09-08T08:54:38;6.07;;;2.65;;
22780;SDS011;11557;50.884;4.322;2023-09-08T08:57:04;4.85;;;2.25;;
22780;SDS011;11557;50.884;4.322;2023-09-08T08:59:31;2.78;;;2.38;;
22780;SDS011;11557;50.884;4.322;2023-09-08T09:01:59;5.47;;;2.72;;
22780;SDS011;11557;50.884;4.322;2023-09-08T09:04:28;3.35;;;2.33;;
22780;SDS011;11557;50.884;4.322;2023-09-08T09:06:55;1.98;;;1.75;;
22780;SDS011;11557;50.884;4.322;2023-09-08T09:09:20;2.80;;;1.65;;
22780;SDS011;11557;50.884;4.322;2023-09-08T09:11:46;3.13;;;2.45;;
22780;SDS011;11557;50.884;4.322;2023-09-08T09:14:12;6.78;;;2.55;;
22780;SDS011;11557;50.884;4.322;2023-09-08T09:16:38;4.10;;;2.30;;
22780;SDS011;11557;50.884;4.322;2023-09-08T09:19:05;2.83;;;2.38;;
22780;SDS011;11557;50.884;4.322;2023-09-08T09:21:43;4.15;;;2.38;;
22780;SDS011;11557;50.884;4.322;2023-09-08T09:27:04;2.30;;;2.00;;
22780;SDS011;11557;50.884;4.322;2023-09-08T09:29:34;2.58;;;1.92;;
22780;SDS011;11557;50.884;4.322;2023-09-08T09:32:09;2.53;;;2.08;;
22780;SDS011;11557;50.884;4.322;2023-09-08T09:34:35;3.50;;;2.05;;
22780;SDS011;11557;50.884;4.322;2023-09-08T09:37:11;4.43;;;2.03;;
22780;SDS011;11557;50.884;4.322;2023-09-08T09:39:37;6.60;;;2.55;;
22780;SDS011;11557;50.884;4.322;2023-09-08T09:42:03;2.72;;;2.10;;
22780;SDS011;11557;50.884;4.322;2023-09-08T09:44:29;1.88;;;1.40;;
22780;SDS011;11557;50.884;4.322;2023-09-08T09:46:55;3.95;;;2.15;;
22780;SDS011;11557;50.884;4.322;2023-09-08T09:49:21;5.00;;;2.67;;
22780;SDS011;11557;50.884;4.322;2023-09-08T09:51:49;4.40;;;2.47;;
22780;SDS011;11557;50.884;4.322;2023-09-08T09:54:18;2.17;;;1.65;;
22780;SDS011;11557;50.884;4.322;2023-09-08T09:56:45;4.90;;;2.13;;
22780;SDS011;11557;50.884;4.322;2023-09-08T09:59:15;2.47;;;1.83;;
22780;SDS011;11557;50.884;4.322;2023-09-08T10:01:41;4.63;;;1.85;;
22780;SDS011;11557;50.884;4.322;2023-09-08T10:04:07;3.65;;;1.83;;
22780;SDS011;11557;50.884;4.322;2023-09-08T10:06:37;4.18;;;2.47;;
22780;SDS011;11557;50.884;4.322;2023-09-08T10:09:04;3.65;;;2.15;;
22780;SDS011;11557;50.884;4.322;2023-09-08T10:11:34;2.95;;;2.13;;
22780;SDS011;11557;50.884;4.322;2023-09-08T10:14:07;2.72;;;2.15;;
22780;SDS011;11557;50.884;4.322;2023-09-08T10:16:37;2.58;;;1.92;;
22780;SDS011;11557;50.884;4.322;2023-09-08T10:19:05;3.97;;;2.28;;
22780;SDS011;11557;50.884;4.322;2023-09-08T10:21:33;3.20;;;1.85;;
22780;SDS011;11557;50.884;4.322;2023-09-08T10:24:07;1.70;;;1.42;;
22780;SDS011;11557;50.884;4.322;2023-09-08T10:26:40;3.20;;;2.10;;
22780;SDS011;11557;50.884;4.322;2023-09-08T10:29:09;3.30;;;2.15;;
22780;SDS011;11557;50.884;4.322;2023-09-08T10:31:36;2.63;;;1.98;;
22780;SDS011;11557;50.884;4.322;2023-09-08T10:34:03;4.35;;;2.40;;
22780;SDS011;11557;50.884;4.322;2023-09-08T10:36:29;3.95;;;2.05;;
22780;SDS011;11557;50.884;4.322;2023-09-08T10:39:17;2.90;;;1.92;;
22780;SDS011;11557;50.884;4.322;2023-09-08T10:42:39;2.28;;;1.55;;
22780;SDS011;11557;50.884;4.322;2023-09-08T10:47:12;4.03;;;1.83;;
22780;SDS011;11557;50.884;4.322;2023-09-08T10:49:38;1.98;;;1.45;;
22780;SDS011;11557;50.884;4.322;2023-09-08T10:52:10;5.70;;;1.90;;
22780;SDS011;11557;50.884;4.322;2023-09-08T10:54:40;1.98;;;1.33;;
22780;SDS011;11557;50.884;4.322;2023-09-08T10:57:07;6.70;;;1.80;;
22780;SDS011;11557;50.884;4.322;2023-09-08T10:59:38;4.43;;;1.63;;
22780;SDS011;11557;50.884;4.322;2023-09-08T11:02:04;2.55;;;1.60;;
22780;SDS011;11557;50.884;4.322;2023-09-08T11:04:29;1.55;;;0.98;;
22780;SDS011;11557;50.884;4.322;2023-09-08T11:06:57;2.97;;;1.60;;
22780;SDS011;11557;50.884;4.322;2023-09-08T11:09:23;1.50;;;1.23;;
22780;SDS011;11557;50.884;4.322;2023-09-08T11:11:48;2.47;;;1.52;;
22780;SDS011;11557;50.884;4.322;2023-09-08T11:14:15;4.80;;;2.03;;
22780;SDS011;11557;50.884;4.322;2023-09-08T11:16:41;3.15;;;1.73;;
22780;SDS011;11557;50.884;4.322;2023-09-08T11:19:07;1.45;;;1.35;;
22780;SDS011;11557;50.884;4.322;2023-09-08T11:21:35;1.95;;;1.05;;
22780;SDS011;11557;50.884;4.322;2023-09-08T11:24:04;1.90;;;1.52;;
22780;SDS011;11557;50.884;4.322;2023-09-08T11:26:34;1.63;;;0.98;;
22780;SDS011;11557;50.884;4.322;2023-09-08T11:28:59;1.42;;;1.17;;
22780;SDS011;11557;50.884;4.322;2023-09-08T11:31:26;2.25;;;1.13;;
22780;SDS011;11557;50.884;4.322;2023-09-08T11:33:54;1.50;;;1.25;;
22780;SDS011;11557;50.884;4.322;2023-09-08T11:36:20;1.45;;;1.10;;
22780;SDS011;11557;50.884;4.322;2023-09-08T11:38:46;1.85;;;1.33;;
22780;SDS011;11557;50.884;4.322;2023-09-08T11:41:12;2.58;;;1.00;;
22780;SDS011;11557;50.884;4.322;2023-09-08T11:43:38;1.42;;;1.33;;
22780;SDS011;11557;50.884;4.322;2023-09-08T11:46:04;2.88;;;1.30;;
22780;SDS011;11557;50.884;4.322;2023-09-08T11:48:31;2.45;;;1.20;;
22780;SDS011;11557;50.884;4.322;2023-09-08T11:50:57;1.58;;;1.48;;
22780;SDS011;11557;50.884;4.322;2023-09-08T11:53:23;1.45;;;1.20;;
22780;SDS011;11557;50.884;4.322;2023-09-08T11:55:50;2.80;;;1.38;;
22780;SDS011;11557;50.884;4.322;2023-09-08T11:58:16;2.85;;;1.73;;
22780;SDS011;11557;50.884;4.322;2023-09-08T12:00:44;2.72;;;1.48;;
22780;SDS011;11557;50.884;4.322;2023-09-08T12:03:13;1.80;;;1.27;;
22780;SDS011;11557;50.884;4.322;2023-09-08T12:05:40;1.98;;;1.63;;
22780;SDS011;11557;50.884;4.322;2023-09-08T12:08:07;4.07;;;1.70;;
22780;SDS011;11557;50.884;4.322;2023-09-08T12:10:40;2.83;;;1.00;;
22780;SDS011;11557;50.884;4.322;2023-09-08T12:13:06;3.65;;;1.10;;
22780;SDS011;11557;50.884;4.322;2023-09-08T12:15:37;2.65;;;1.00;;
22780;SDS011;11557;50.884;4.322;2023-09-08T12:18:04;4.57;;;1.48;;
22780;SDS011;11557;50.884;4.322;2023-09-08T12:20:35;4.88;;;1.77;;
22780;SDS011;11557;50.884;4.322;2023-09-08T12:23:03;2.03;;;1.40;;
22780;SDS011;11557;50.884;4.322;2023-09-08T12:25:30;5.13;;;1.75;;
22780;SDS011;11557;50.884;4.322;2023-09-08T12:27:57;2.10;;;1.40;;
22780;SDS011;11557;50.884;4.322;2023-09-08T12:30:23;3.58;;;1.95;;
22780;SDS011;11557;50.884;4.322;2023-09-08T12:33:00;3.80;;;1.90;;
22780;SDS011;11557;50.884;4.322;2023-09-08T12:35:27;3.15;;;2.22;;
22780;SDS011;11557;50.884;4.322;2023-09-08T12:37:57;1.88;;;1.10;;
22780;SDS011;11557;50.884;4.322;2023-09-08T12:40:27;1.75;;;1.00;;
22780;SDS011;11557;50.884;4.322;2023-09-08T12:42:54;9.48;;;1.45;;
22780;SDS011;11557;50.884;4.322;2023-09-08T12:45:20;2.17;;;1.50;;
22780;SDS011;11557;50.884;4.322;2023-09-08T12:47:47;5.80;;;2.42;;
22780;SDS011;11557;50.884;4.322;2023-09-08T12:50:13;2.40;;;1.45;;
22780;SDS011;11557;50.884;4.322;2023-09-08T12:52:39;3.33;;;1.90;;
22780;SDS011;11557;50.884;4.322;2023-09-08T12:55:05;2.35;;;1.35;;
22780;SDS011;11557;50.884;4.322;2023-09-08T12:57:33;3.78;;;1.40;;
22780;SDS011;11557;50.884;4.322;2023-09-08T12:59:59;2.30;;;1.20;;
22780;SDS011;11557;50.884;4.322;2023-09-08T13:02:25;2.15;;;1.40;;
22780;SDS011;11557;50.884;4.322;2023-09-08T13:04:51;5.03;;;2.25;;
22780;SDS011;11557;50.884;4.322;2023-09-08T13:07:17;2.85;;;1.63;;
22780;SDS011;11557;50.884;4.322;2023-09-08T13:09:43;2.45;;;1.42;;
22780;SDS011;11557;50.884;4.322;2023-09-08T13:12:09;4.32;;;1.10;;
22780;SDS011;11557;50.884;4.322;2023-09-08T13:14:37;2.10;;;1.42;;
22780;SDS011;11557;50.884;4.322;2023-09-08T13:17:03;9.25;;;1.95;;
22780;SDS011;11557;50.884;4.322;2023-09-08T13:19:29;4.57;;;1.98;;
22780;SDS011;11557;50.884;4.322;2023-09-08T13:21:54;23.50;;;1.33;;
22780;SDS011;11557;50.884;4.322;2023-09-08T13:24:20;1.92;;;1.38;;
22780;SDS011;11557;50.884;4.322;2023-09-08T13:26:47;2.13;;;1.65;;
22780;SDS011;11557;50.884;4.322;2023-09-08T13:29:13;1.77;;;1.08;;
22780;SDS011;11557;50.884;4.322;2023-09-08T13:31:38;2.47;;;1.60;;
22780;SDS011;11557;50.884;4.322;2023-09-08T13:34:04;6.63;;;1.45;;
22780;SDS011;11557;50.884;4.322;2023-09-08T13:36:30;2.95;;;1.35;;
22780;SDS011;11557;50.884;4.322;2023-09-08T13:38:56;2.15;;;1.58;;
22780;SDS011;11557;50.884;4.322;2023-09-08T13:41:21;2.50;;;1.77;;
22780;SDS011;11557;50.884;4.322;2023-09-08T13:43:47;4.45;;;1.42;;
22780;SDS011;11557;50.884;4.322;2023-09-08T13:46:13;3.58;;;1.27;;
22780;SDS011;11557;50.884;4.322;2023-09-08T13:48:38;1.90;;;1.17;;
22780;SDS011;11557;50.884;4.322;2023-09-08T13:51:04;2.78;;;1.25;;
22780;SDS011;11557;50.884;4.322;2023-09-08T13:53:30;4.93;;;2.13;;
22780;SDS011;11557;50.884;4.322;2023-09-08T13:55:56;3.10;;;1.95;;
22780;SDS011;11557;50.884;4.322;2023-09-08T13:58:22;3.92;;;1.48;;
22780;SDS011;11557;50.884;4.322;2023-09-08T14:00:47;5.43;;;1.83;;
22780;SDS011;11557;50.884;4.322;2023-09-08T14:03:19;2.63;;;1.90;;
22780;SDS011;11557;50.884;4.322;2023-09-08T14:05:44;4.65;;;2.10;;
22780;SDS011;11557;50.884;4.322;2023-09-08T14:08:10;2.17;;;1.65;;
22780;SDS011;11557;50.884;4.322;2023-09-08T14:10:36;2.85;;;1.40;;
22780;SDS011;11557;50.884;4.322;2023-09-08T14:13:01;3.65;;;1.98;;
22780;SDS011;11557;50.884;4.322;2023-09-08T14:15:27;3.35;;;1.25;;
22780;SDS011;11557;50.884;4.322;2023-09-08T14:17:53;4.95;;;1.58;;
22780;SDS011;11557;50.884;4.322;2023-09-08T14:20:18;2.33;;;1.67;;
22780;SDS011;11557;50.884;4.322;2023-09-08T14:22:44;2.03;;;1.75;;
22780;SDS011;11557;50.884;4.322;2023-09-08T14:25:10;2.55;;;1.40;;
22780;SDS011;11557;50.884;4.322;2023-09-08T14:27:36;9.18;;;3.03;;
22780;SDS011;11557;50.884;4.322;2023-09-08T14:30:02;2.83;;;1.85;;
22780;SDS011;11557;50.884;4.322;2023-09-08T14:32:29;3.80;;;1.92;;
22780;SDS011;11557;50.884;4.322;2023-09-08T14:34:55;3.88;;;1.60;;
22780;SDS011;11557;50.884;4.322;2023-09-08T14:37:21;4.93;;;2.50;;
22780;SDS011;11557;50.884;4.322;2023-09-08T14:39:47;4.50;;;1.90;;
22780;SDS011;11557;50.884;4.322;2023-09-08T14:42:13;4.53;;;1.98;;
22780;SDS011;11557;50.884;4.322;2023-09-08T14:44:40;4.50;;;2.25;;
22780;SDS011;11557;50.884;4.322;2023-09-08T14:47:06;5.78;;;1.80;;
22780;SDS011;11557;50.884;4.322;2023-09-08T14:49:32;5.15;;;1.98;;
22780;SDS011;11557;50.884;4.322;2023-09-08T14:51:58;11.43;;;2.00;;